sensor_id;sensor_type;location;lat;lon;timestamp;P1;durP1;ratioP1;P2;durP2;ratioP2
76964;SDS011;65903;51.452;7.198;2022-12-26T00:00:04;6.07;;;3.67;;
76964;SDS011;65903;51.452;7.198;2022-12-26T00:01:08;6.05;;;3.90;;
76964;SDS011;65903;51.452;7.198;2022-12-26T00:02:12;4.90;;;3.67;;
76964;SDS011;65903;51.452;7.198;2022-12-26T00:03:12;6.28;;;3.65;;
76964;SDS011;65903;51.452;7.198;2022-12-26T00:04:16;5.13;;;3.58;;
76964;SDS011;65903;51.452;7.198;2022-12-26T00:05:17;7.03;;;4.18;;
76964;SDS011;65903;51.452;7.198;2022-12-26T00:08:21;4.20;;;3.13;;
76964;SDS011;65903;51.452;7.198;2022-12-26T00:09:22;8.00;;;4.18;;
76964;SDS011;65903;51.452;7.198;2022-12-26T00:10:24;5.28;;;3.65;;
76964;SDS011;65903;51.452;7.198;2022-12-26T00:11:27;5.80;;;4.22;;
76964;SDS011;65903;51.452;7.198;2022-12-26T00:12:27;7.28;;;4.30;;
76964;SDS011;65903;51.452;7.198;2022-12-26T00:13:30;7.13;;;4.22;;
76964;SDS011;65903;51.452;7.198;2022-12-26T00:14:30;8.43;;;4.35;;
76964;SDS011;65903;51.452;7.198;2022-12-26T00:15:33;6.53;;;4.22;;
76964;SDS011;65903;51.452;7.198;2022-12-26T00:17:34;7.68;;;4.00;;
76964;SDS011;65903;51.452;7.198;2022-12-26T00:18:34;6.50;;;4.25;;
76964;SDS011;65903;51.452;7.198;2022-12-26T00:19:37;5.95;;;4.03;;
76964;SDS011;65903;51.452;7.198;2022-12-26T00:20:37;6.90;;;4.60;;
76964;SDS011;65903;51.452;7.198;2022-12-26T00:21:38;6.40;;;4.72;;
76964;SDS011;65903;51.452;7.198;2022-12-26T00:22:38;7.18;;;4.20;;
76964;SDS011;65903;51.452;7.198;2022-12-26T00:23:38;7.07;;;4.75;;
76964;SDS011;65903;51.452;7.198;2022-12-26T00:24:39;7.88;;;5.10;;
76964;SDS011;65903;51.452;7.198;2022-12-26T00:25:39;7.13;;;5.13;;
76964;SDS011;65903;51.452;7.198;2022-12-26T00:26:40;7.35;;;5.28;;
76964;SDS011;65903;51.452;7.198;2022-12-26T00:27:40;8.88;;;6.35;;
76964;SDS011;65903;51.452;7.198;2022-12-26T00:28:41;6.47;;;4.65;;
76964;SDS011;65903;51.452;7.198;2022-12-26T00:29:43;7.22;;;5.00;;
76964;SDS011;65903;51.452;7.198;2022-12-26T00:31:47;7.43;;;4.72;;
76964;SDS011;65903;51.452;7.198;2022-12-26T00:32:50;8.13;;;5.20;;
76964;SDS011;65903;51.452;7.198;2022-12-26T00:33:51;8.23;;;5.65;;
76964;SDS011;65903;51.452;7.198;2022-12-26T00:34:53;10.23;;;5.07;;
76964;SDS011;65903;51.452;7.198;2022-12-26T00:35:59;7.85;;;5.32;;
76964;SDS011;65903;51.452;7.198;2022-12-26T00:37:05;7.85;;;4.85;;
76964;SDS011;65903;51.452;7.198;2022-12-26T00:38:08;9.55;;;5.15;;
76964;SDS011;65903;51.452;7.198;2022-12-26T00:39:11;9.43;;;5.95;;
76964;SDS011;65903;51.452;7.198;2022-12-26T00:40:11;9.43;;;5.57;;
76964;SDS011;65903;51.452;7.198;2022-12-26T00:41:12;8.32;;;5.80;;
76964;SDS011;65903;51.452;7.198;2022-12-26T00:42:18;9.85;;;5.20;;
76964;SDS011;65903;51.452;7.198;2022-12-26T00:43:18;8.60;;;5.65;;
76964;SDS011;65903;51.452;7.198;2022-12-26T00:44:18;9.40;;;6.28;;
76964;SDS011;65903;51.452;7.198;2022-12-26T00:45:19;7.93;;;5.63;;
76964;SDS011;65903;51.452;7.198;2022-12-26T00:46:22;9.05;;;5.35;;
76964;SDS011;65903;51.452;7.198;2022-12-26T00:47:22;10.82;;;6.38;;
76964;SDS011;65903;51.452;7.198;2022-12-26T00:48:22;8.55;;;5.85;;
76964;SDS011;65903;51.452;7.198;2022-12-26T00:49:25;10.63;;;5.93;;
76964;SDS011;65903;51.452;7.198;2022-12-26T00:50:28;9.20;;;6.63;;
76964;SDS011;65903;51.452;7.198;2022-12-26T00:51:31;9.30;;;5.82;;
76964;SDS011;65903;51.452;7.198;2022-12-26T00:52:32;9.10;;;5.85;;
76964;SDS011;65903;51.452;7.198;2022-12-26T00:53:39;6.88;;;4.47;;
76964;SDS011;65903;51.452;7.198;2022-12-26T00:54:42;8.95;;;5.13;;
76964;SDS011;65903;51.452;7.198;2022-12-26T00:55:42;10.82;;;6.03;;
76964;SDS011;65903;51.452;7.198;2022-12-26T00:56:43;6.97;;;5.25;;
76964;SDS011;65903;51.452;7.198;2022-12-26T00:57:46;9.82;;;5.65;;
76964;SDS011;65903;51.452;7.198;2022-12-26T00:58:46;7.38;;;5.15;;
76964;SDS011;65903;51.452;7.198;2022-12-26T00:59:47;9.20;;;5.40;;
76964;SDS011;65903;51.452;7.198;2022-12-26T01:00:49;10.25;;;4.90;;
76964;SDS011;65903;51.452;7.198;2022-12-26T01:01:50;8.05;;;5.22;;
76964;SDS011;65903;51.452;7.198;2022-12-26T01:02:51;7.65;;;5.20;;
76964;SDS011;65903;51.452;7.198;2022-12-26T01:03:51;8.05;;;4.47;;
76964;SDS011;65903;51.452;7.198;2022-12-26T01:04:51;8.60;;;4.88;;
76964;SDS011;65903;51.452;7.198;2022-12-26T01:05:57;9.45;;;4.75;;
76964;SDS011;65903;51.452;7.198;2022-12-26T01:07:00;9.50;;;5.30;;
76964;SDS011;65903;51.452;7.198;2022-12-26T01:08:00;8.23;;;4.05;;
76964;SDS011;65903;51.452;7.198;2022-12-26T01:09:00;8.10;;;4.40;;
76964;SDS011;65903;51.452;7.198;2022-12-26T01:10:02;6.60;;;3.90;;
76964;SDS011;65903;51.452;7.198;2022-12-26T01:11:07;7.13;;;4.20;;
76964;SDS011;65903;51.452;7.198;2022-12-26T01:12:09;6.00;;;4.20;;
76964;SDS011;65903;51.452;7.198;2022-12-26T01:13:09;5.93;;;3.72;;
76964;SDS011;65903;51.452;7.198;2022-12-26T01:14:13;6.60;;;3.90;;
76964;SDS011;65903;51.452;7.198;2022-12-26T01:15:15;6.10;;;4.22;;
76964;SDS011;65903;51.452;7.198;2022-12-26T01:16:16;6.15;;;4.20;;
76964;SDS011;65903;51.452;7.198;2022-12-26T01:17:18;8.25;;;4.47;;
76964;SDS011;65903;51.452;7.198;2022-12-26T01:18:19;7.22;;;4.65;;
76964;SDS011;65903;51.452;7.198;2022-12-26T01:19:22;7.65;;;4.40;;
76964;SDS011;65903;51.452;7.198;2022-12-26T01:20:22;6.78;;;4.63;;
76964;SDS011;65903;51.452;7.198;2022-12-26T01:21:23;6.78;;;4.25;;
76964;SDS011;65903;51.452;7.198;2022-12-26T01:22:23;6.78;;;4.47;;
76964;SDS011;65903;51.452;7.198;2022-12-26T01:23:24;7.15;;;4.93;;
76964;SDS011;65903;51.452;7.198;2022-12-26T01:24:27;8.35;;;5.05;;
76964;SDS011;65903;51.452;7.198;2022-12-26T01:25:30;11.23;;;6.70;;
76964;SDS011;65903;51.452;7.198;2022-12-26T01:26:30;8.68;;;5.40;;
76964;SDS011;65903;51.452;7.198;2022-12-26T01:27:31;9.10;;;5.53;;
76964;SDS011;65903;51.452;7.198;2022-12-26T01:28:31;9.13;;;6.20;;
76964;SDS011;65903;51.452;7.198;2022-12-26T01:29:33;9.73;;;5.90;;
76964;SDS011;65903;51.452;7.198;2022-12-26T01:30:34;9.80;;;5.97;;
76964;SDS011;65903;51.452;7.198;2022-12-26T01:31:34;9.18;;;5.22;;
76964;SDS011;65903;51.452;7.198;2022-12-26T01:32:34;9.20;;;5.55;;
76964;SDS011;65903;51.452;7.198;2022-12-26T01:33:35;9.18;;;5.95;;
76964;SDS011;65903;51.452;7.198;2022-12-26T01:34:35;7.05;;;4.57;;
76964;SDS011;65903;51.452;7.198;2022-12-26T01:35:35;7.93;;;4.90;;
76964;SDS011;65903;51.452;7.198;2022-12-26T01:36:36;7.25;;;4.35;;
76964;SDS011;65903;51.452;7.198;2022-12-26T01:37:36;7.90;;;4.68;;
76964;SDS011;65903;51.452;7.198;2022-12-26T01:38:36;5.03;;;3.40;;
76964;SDS011;65903;51.452;7.198;2022-12-26T01:39:37;4.97;;;3.67;;
76964;SDS011;65903;51.452;7.198;2022-12-26T01:40:41;5.95;;;4.43;;
76964;SDS011;65903;51.452;7.198;2022-12-26T01:41:42;6.20;;;4.05;;
76964;SDS011;65903;51.452;7.198;2022-12-26T01:42:42;5.85;;;3.53;;
76964;SDS011;65903;51.452;7.198;2022-12-26T01:45:20;4.90;;;3.40;;
76964;SDS011;65903;51.452;7.198;2022-12-26T01:47:41;4.75;;;3.13;;
76964;SDS011;65903;51.452;7.198;2022-12-26T01:48:46;4.68;;;2.90;;
76964;SDS011;65903;51.452;7.198;2022-12-26T01:49:48;4.63;;;2.90;;
76964;SDS011;65903;51.452;7.198;2022-12-26T01:50:56;4.57;;;2.97;;
76964;SDS011;65903;51.452;7.198;2022-12-26T01:52:02;5.22;;;2.67;;
76964;SDS011;65903;51.452;7.198;2022-12-26T01:53:08;4.40;;;3.08;;
76964;SDS011;65903;51.452;7.198;2022-12-26T01:54:23;4.88;;;2.83;;
76964;SDS011;65903;51.452;7.198;2022-12-26T01:55:27;5.82;;;3.05;;
76964;SDS011;65903;51.452;7.198;2022-12-26T01:56:30;4.22;;;2.92;;
76964;SDS011;65903;51.452;7.198;2022-12-26T01:57:34;3.90;;;2.75;;
76964;SDS011;65903;51.452;7.198;2022-12-26T01:58:38;4.57;;;3.10;;
76964;SDS011;65903;51.452;7.198;2022-12-26T01:59:43;4.70;;;2.85;;
76964;SDS011;65903;51.452;7.198;2022-12-26T02:00:45;4.45;;;3.65;;
76964;SDS011;65903;51.452;7.198;2022-12-26T02:01:46;4.55;;;3.13;;
76964;SDS011;65903;51.452;7.198;2022-12-26T02:02:49;5.28;;;3.47;;
76964;SDS011;65903;51.452;7.198;2022-12-26T02:04:08;5.18;;;3.40;;
76964;SDS011;65903;51.452;7.198;2022-12-26T02:05:30;5.78;;;3.10;;
76964;SDS011;65903;51.452;7.198;2022-12-26T02:06:33;5.90;;;3.78;;
76964;SDS011;65903;51.452;7.198;2022-12-26T02:07:41;5.28;;;3.00;;
76964;SDS011;65903;51.452;7.198;2022-12-26T02:08:43;5.78;;;3.63;;
76964;SDS011;65903;51.452;7.198;2022-12-26T02:09:44;5.18;;;3.55;;
76964;SDS011;65903;51.452;7.198;2022-12-26T02:10:54;4.65;;;3.42;;
76964;SDS011;65903;51.452;7.198;2022-12-26T02:12:10;5.32;;;3.60;;
76964;SDS011;65903;51.452;7.198;2022-12-26T02:13:12;5.45;;;3.47;;
76964;SDS011;65903;51.452;7.198;2022-12-26T02:14:12;4.68;;;3.53;;
76964;SDS011;65903;51.452;7.198;2022-12-26T02:15:14;5.05;;;3.50;;
76964;SDS011;65903;51.452;7.198;2022-12-26T02:16:16;5.22;;;3.60;;
76964;SDS011;65903;51.452;7.198;2022-12-26T02:17:17;4.47;;;3.22;;
76964;SDS011;65903;51.452;7.198;2022-12-26T02:18:17;5.55;;;3.55;;
76964;SDS011;65903;51.452;7.198;2022-12-26T02:19:25;4.65;;;3.60;;
76964;SDS011;65903;51.452;7.198;2022-12-26T02:20:28;5.25;;;3.30;;
76964;SDS011;65903;51.452;7.198;2022-12-26T02:33:04;4.32;;;3.22;;
76964;SDS011;65903;51.452;7.198;2022-12-26T02:34:15;4.82;;;2.80;;
76964;SDS011;65903;51.452;7.198;2022-12-26T02:35:41;5.35;;;2.92;;
76964;SDS011;65903;51.452;7.198;2022-12-26T02:38:27;4.78;;;2.80;;
76964;SDS011;65903;51.452;7.198;2022-12-26T02:40:51;4.25;;;3.20;;
76964;SDS011;65903;51.452;7.198;2022-12-26T02:46:42;4.47;;;3.03;;
76964;SDS011;65903;51.452;7.198;2022-12-26T02:49:30;4.90;;;2.90;;
76964;SDS011;65903;51.452;7.198;2022-12-26T02:52:15;5.05;;;3.33;;
76964;SDS011;65903;51.452;7.198;2022-12-26T02:55:29;5.05;;;3.42;;
76964;SDS011;65903;51.452;7.198;2022-12-26T02:56:53;5.50;;;3.85;;
76964;SDS011;65903;51.452;7.198;2022-12-26T02:58:22;4.82;;;3.50;;
76964;SDS011;65903;51.452;7.198;2022-12-26T03:00:13;8.70;;;3.85;;
76964;SDS011;65903;51.452;7.198;2022-12-26T03:01:43;6.80;;;3.63;;
76964;SDS011;65903;51.452;7.198;2022-12-26T03:04:27;6.35;;;3.78;;
76964;SDS011;65903;51.452;7.198;2022-12-26T03:06:11;6.15;;;4.20;;
76964;SDS011;65903;51.452;7.198;2022-12-26T03:07:33;5.35;;;3.75;;
76964;SDS011;65903;51.452;7.198;2022-12-26T03:08:57;4.15;;;3.13;;
76964;SDS011;65903;51.452;7.198;2022-12-26T03:10:30;6.93;;;3.80;;
76964;SDS011;65903;51.452;7.198;2022-12-26T03:11:51;7.18;;;3.65;;
76964;SDS011;65903;51.452;7.198;2022-12-26T03:13:16;3.92;;;2.72;;
76964;SDS011;65903;51.452;7.198;2022-12-26T03:14:24;5.30;;;3.78;;
76964;SDS011;65903;51.452;7.198;2022-12-26T03:15:31;4.97;;;3.65;;
76964;SDS011;65903;51.452;7.198;2022-12-26T03:16:55;5.28;;;3.70;;
76964;SDS011;65903;51.452;7.198;2022-12-26T03:18:19;7.47;;;5.05;;
76964;SDS011;65903;51.452;7.198;2022-12-26T03:19:22;7.70;;;5.25;;
76964;SDS011;65903;51.452;7.198;2022-12-26T03:20:34;6.78;;;4.63;;
76964;SDS011;65903;51.452;7.198;2022-12-26T03:21:37;7.40;;;4.85;;
76964;SDS011;65903;51.452;7.198;2022-12-26T03:22:48;5.40;;;4.22;;
76964;SDS011;65903;51.452;7.198;2022-12-26T03:23:51;7.25;;;4.78;;
76964;SDS011;65903;51.452;7.198;2022-12-26T03:24:53;6.72;;;5.05;;
76964;SDS011;65903;51.452;7.198;2022-12-26T03:26:14;6.55;;;4.40;;
76964;SDS011;65903;51.452;7.198;2022-12-26T03:27:34;6.13;;;4.15;;
76964;SDS011;65903;51.452;7.198;2022-12-26T03:28:40;6.22;;;4.22;;
76964;SDS011;65903;51.452;7.198;2022-12-26T03:29:40;5.93;;;3.70;;
76964;SDS011;65903;51.452;7.198;2022-12-26T03:31:20;6.10;;;4.13;;
76964;SDS011;65903;51.452;7.198;2022-12-26T03:32:20;6.55;;;4.50;;
76964;SDS011;65903;51.452;7.198;2022-12-26T03:34:41;5.40;;;3.78;;
76964;SDS011;65903;51.452;7.198;2022-12-26T03:35:42;6.47;;;4.50;;
76964;SDS011;65903;51.452;7.198;2022-12-26T03:37:55;6.18;;;4.00;;
76964;SDS011;65903;51.452;7.198;2022-12-26T03:41:54;5.78;;;4.07;;
76964;SDS011;65903;51.452;7.198;2022-12-26T03:46:30;7.45;;;5.38;;
76964;SDS011;65903;51.452;7.198;2022-12-26T03:48:00;9.48;;;6.57;;
76964;SDS011;65903;51.452;7.198;2022-12-26T03:49:26;10.27;;;7.43;;
76964;SDS011;65903;51.452;7.198;2022-12-26T03:50:47;9.65;;;6.75;;
76964;SDS011;65903;51.452;7.198;2022-12-26T03:52:10;10.00;;;6.43;;
76964;SDS011;65903;51.452;7.198;2022-12-26T03:53:58;9.27;;;6.65;;
76964;SDS011;65903;51.452;7.198;2022-12-26T03:55:25;10.25;;;7.32;;
76964;SDS011;65903;51.452;7.198;2022-12-26T03:57:03;7.90;;;5.82;;
76964;SDS011;65903;51.452;7.198;2022-12-26T04:00:02;9.35;;;6.47;;
76964;SDS011;65903;51.452;7.198;2022-12-26T04:01:24;10.20;;;6.95;;
76964;SDS011;65903;51.452;7.198;2022-12-26T04:02:47;9.57;;;7.38;;
76964;SDS011;65903;51.452;7.198;2022-12-26T04:04:08;9.45;;;5.95;;
76964;SDS011;65903;51.452;7.198;2022-12-26T04:05:28;9.05;;;6.30;;
76964;SDS011;65903;51.452;7.198;2022-12-26T04:06:49;9.18;;;6.65;;
76964;SDS011;65903;51.452;7.198;2022-12-26T04:08:16;8.90;;;6.80;;
76964;SDS011;65903;51.452;7.198;2022-12-26T04:10:10;9.13;;;6.45;;
76964;SDS011;65903;51.452;7.198;2022-12-26T04:11:33;9.15;;;6.03;;
76964;SDS011;65903;51.452;7.198;2022-12-26T04:12:52;7.60;;;5.72;;
76964;SDS011;65903;51.452;7.198;2022-12-26T04:16:09;7.40;;;5.57;;
76964;SDS011;65903;51.452;7.198;2022-12-26T04:17:44;7.43;;;4.97;;
76964;SDS011;65903;51.452;7.198;2022-12-26T04:19:18;6.50;;;4.95;;
76964;SDS011;65903;51.452;7.198;2022-12-26T04:21:58;6.32;;;4.72;;
76964;SDS011;65903;51.452;7.198;2022-12-26T04:24:55;6.78;;;4.50;;
76964;SDS011;65903;51.452;7.198;2022-12-26T04:26:49;6.07;;;4.60;;
76964;SDS011;65903;51.452;7.198;2022-12-26T04:28:11;5.30;;;3.80;;
76964;SDS011;65903;51.452;7.198;2022-12-26T04:29:30;6.72;;;4.90;;
76964;SDS011;65903;51.452;7.198;2022-12-26T04:30:56;8.13;;;5.10;;
76964;SDS011;65903;51.452;7.198;2022-12-26T04:33:50;8.00;;;6.25;;
76964;SDS011;65903;51.452;7.198;2022-12-26T04:35:16;8.00;;;5.57;;
76964;SDS011;65903;51.452;7.198;2022-12-26T04:36:42;9.57;;;5.68;;
76964;SDS011;65903;51.452;7.198;2022-12-26T04:38:04;9.05;;;6.10;;
76964;SDS011;65903;51.452;7.198;2022-12-26T04:39:24;7.35;;;5.28;;
76964;SDS011;65903;51.452;7.198;2022-12-26T04:40:48;8.93;;;5.90;;
76964;SDS011;65903;51.452;7.198;2022-12-26T04:42:09;7.80;;;5.97;;
76964;SDS011;65903;51.452;7.198;2022-12-26T04:43:32;6.18;;;4.82;;
76964;SDS011;65903;51.452;7.198;2022-12-26T04:44:52;6.38;;;4.70;;
76964;SDS011;65903;51.452;7.198;2022-12-26T04:45:55;8.63;;;5.53;;
76964;SDS011;65903;51.452;7.198;2022-12-26T04:46:59;8.75;;;4.65;;
76964;SDS011;65903;51.452;7.198;2022-12-26T04:47:59;6.00;;;4.32;;
76964;SDS011;65903;51.452;7.198;2022-12-26T04:49:18;6.40;;;4.93;;
76964;SDS011;65903;51.452;7.198;2022-12-26T04:50:47;5.72;;;4.40;;
76964;SDS011;65903;51.452;7.198;2022-12-26T04:51:49;5.85;;;4.85;;
76964;SDS011;65903;51.452;7.198;2022-12-26T04:52:49;6.28;;;4.63;;
76964;SDS011;65903;51.452;7.198;2022-12-26T04:53:58;6.90;;;4.78;;
76964;SDS011;65903;51.452;7.198;2022-12-26T04:54:58;7.47;;;4.93;;
76964;SDS011;65903;51.452;7.198;2022-12-26T04:56:01;6.47;;;4.68;;
76964;SDS011;65903;51.452;7.198;2022-12-26T04:57:04;5.85;;;3.83;;
76964;SDS011;65903;51.452;7.198;2022-12-26T04:59:09;6.40;;;4.65;;
76964;SDS011;65903;51.452;7.198;2022-12-26T05:00:10;8.05;;;5.03;;
76964;SDS011;65903;51.452;7.198;2022-12-26T05:01:11;5.75;;;4.53;;
76964;SDS011;65903;51.452;7.198;2022-12-26T05:02:32;5.90;;;4.78;;
76964;SDS011;65903;51.452;7.198;2022-12-26T05:03:51;6.05;;;4.50;;
76964;SDS011;65903;51.452;7.198;2022-12-26T05:05:10;6.10;;;4.18;;
76964;SDS011;65903;51.452;7.198;2022-12-26T05:06:29;6.78;;;4.75;;
76964;SDS011;65903;51.452;7.198;2022-12-26T05:07:48;5.00;;;4.35;;
76964;SDS011;65903;51.452;7.198;2022-12-26T05:09:08;5.68;;;4.35;;
76964;SDS011;65903;51.452;7.198;2022-12-26T05:10:28;6.55;;;4.40;;
76964;SDS011;65903;51.452;7.198;2022-12-26T05:11:32;6.53;;;4.32;;
76964;SDS011;65903;51.452;7.198;2022-12-26T05:12:34;7.20;;;4.90;;
76964;SDS011;65903;51.452;7.198;2022-12-26T05:13:34;5.32;;;4.00;;
76964;SDS011;65903;51.452;7.198;2022-12-26T05:14:35;5.97;;;4.65;;
76964;SDS011;65903;51.452;7.198;2022-12-26T05:16:57;5.95;;;4.25;;
76964;SDS011;65903;51.452;7.198;2022-12-26T05:18:16;6.13;;;4.75;;
76964;SDS011;65903;51.452;7.198;2022-12-26T05:19:36;5.55;;;3.92;;
76964;SDS011;65903;51.452;7.198;2022-12-26T05:20:55;6.00;;;4.25;;
76964;SDS011;65903;51.452;7.198;2022-12-26T05:22:14;6.35;;;4.40;;
76964;SDS011;65903;51.452;7.198;2022-12-26T05:23:33;7.95;;;4.50;;
76964;SDS011;65903;51.452;7.198;2022-12-26T05:24:52;6.72;;;4.22;;
76964;SDS011;65903;51.452;7.198;2022-12-26T05:26:14;5.80;;;3.92;;
76964;SDS011;65903;51.452;7.198;2022-12-26T05:27:38;5.80;;;4.32;;
76964;SDS011;65903;51.452;7.198;2022-12-26T05:28:58;5.68;;;4.15;;
76964;SDS011;65903;51.452;7.198;2022-12-26T05:29:59;6.07;;;3.72;;
76964;SDS011;65903;51.452;7.198;2022-12-26T05:31:00;6.65;;;4.45;;
76964;SDS011;65903;51.452;7.198;2022-12-26T05:32:03;6.45;;;4.32;;
76964;SDS011;65903;51.452;7.198;2022-12-26T05:33:04;4.97;;;3.42;;
76964;SDS011;65903;51.452;7.198;2022-12-26T05:34:23;5.45;;;4.13;;
76964;SDS011;65903;51.452;7.198;2022-12-26T05:35:25;5.95;;;3.75;;
76964;SDS011;65903;51.452;7.198;2022-12-26T05:36:33;6.70;;;4.30;;
76964;SDS011;65903;51.452;7.198;2022-12-26T05:37:37;5.82;;;4.20;;
76964;SDS011;65903;51.452;7.198;2022-12-26T05:38:38;5.47;;;4.18;;
76964;SDS011;65903;51.452;7.198;2022-12-26T05:39:38;6.45;;;4.05;;
76964;SDS011;65903;51.452;7.198;2022-12-26T05:40:38;5.90;;;4.00;;
76964;SDS011;65903;51.452;7.198;2022-12-26T05:41:41;7.22;;;4.38;;
76964;SDS011;65903;51.452;7.198;2022-12-26T05:42:41;5.40;;;3.72;;
76964;SDS011;65903;51.452;7.198;2022-12-26T05:43:41;6.18;;;4.50;;
76964;SDS011;65903;51.452;7.198;2022-12-26T05:44:47;6.80;;;4.43;;
76964;SDS011;65903;51.452;7.198;2022-12-26T05:45:47;6.40;;;3.97;;
76964;SDS011;65903;51.452;7.198;2022-12-26T05:46:50;5.57;;;3.50;;
76964;SDS011;65903;51.452;7.198;2022-12-26T05:47:56;5.30;;;3.83;;
76964;SDS011;65903;51.452;7.198;2022-12-26T05:48:57;4.15;;;3.13;;
76964;SDS011;65903;51.452;7.198;2022-12-26T05:49:59;5.10;;;3.75;;
76964;SDS011;65903;51.452;7.198;2022-12-26T05:51:00;5.78;;;3.65;;
76964;SDS011;65903;51.452;7.198;2022-12-26T05:52:03;5.90;;;3.65;;
76964;SDS011;65903;51.452;7.198;2022-12-26T05:53:06;5.07;;;3.22;;
76964;SDS011;65903;51.452;7.198;2022-12-26T05:54:08;6.65;;;3.78;;
76964;SDS011;65903;51.452;7.198;2022-12-26T05:55:09;5.07;;;3.45;;
76964;SDS011;65903;51.452;7.198;2022-12-26T05:56:15;5.35;;;3.92;;
76964;SDS011;65903;51.452;7.198;2022-12-26T05:57:16;6.40;;;3.75;;
76964;SDS011;65903;51.452;7.198;2022-12-26T05:58:16;5.85;;;4.50;;
76964;SDS011;65903;51.452;7.198;2022-12-26T05:59:19;5.85;;;3.55;;
76964;SDS011;65903;51.452;7.198;2022-12-26T06:00:19;8.43;;;5.47;;
76964;SDS011;65903;51.452;7.198;2022-12-26T06:01:20;5.75;;;3.67;;
76964;SDS011;65903;51.452;7.198;2022-12-26T06:02:20;8.40;;;4.00;;
76964;SDS011;65903;51.452;7.198;2022-12-26T06:03:23;5.13;;;3.72;;
76964;SDS011;65903;51.452;7.198;2022-12-26T06:04:28;5.85;;;3.97;;
76964;SDS011;65903;51.452;7.198;2022-12-26T06:05:31;6.45;;;4.45;;
76964;SDS011;65903;51.452;7.198;2022-12-26T06:06:31;5.50;;;3.90;;
76964;SDS011;65903;51.452;7.198;2022-12-26T06:07:32;6.53;;;4.22;;
76964;SDS011;65903;51.452;7.198;2022-12-26T06:08:32;7.07;;;4.72;;
76964;SDS011;65903;51.452;7.198;2022-12-26T06:09:33;6.97;;;4.93;;
76964;SDS011;65903;51.452;7.198;2022-12-26T06:10:36;5.45;;;3.97;;
76964;SDS011;65903;51.452;7.198;2022-12-26T06:11:36;5.40;;;4.30;;
76964;SDS011;65903;51.452;7.198;2022-12-26T06:12:41;6.45;;;4.40;;
76964;SDS011;65903;51.452;7.198;2022-12-26T06:13:42;6.25;;;4.35;;
76964;SDS011;65903;51.452;7.198;2022-12-26T06:14:42;6.38;;;4.07;;
76964;SDS011;65903;51.452;7.198;2022-12-26T06:15:43;7.55;;;5.07;;
76964;SDS011;65903;51.452;7.198;2022-12-26T06:16:43;5.70;;;4.22;;
76964;SDS011;65903;51.452;7.198;2022-12-26T06:17:45;6.22;;;4.43;;
76964;SDS011;65903;51.452;7.198;2022-12-26T06:18:46;6.35;;;4.82;;
76964;SDS011;65903;51.452;7.198;2022-12-26T06:19:47;7.70;;;4.85;;
76964;SDS011;65903;51.452;7.198;2022-12-26T06:20:50;5.95;;;4.15;;
76964;SDS011;65903;51.452;7.198;2022-12-26T06:21:53;6.10;;;4.57;;
76964;SDS011;65903;51.452;7.198;2022-12-26T06:22:53;6.53;;;4.60;;
76964;SDS011;65903;51.452;7.198;2022-12-26T06:23:56;6.90;;;4.05;;
76964;SDS011;65903;51.452;7.198;2022-12-26T06:24:56;6.63;;;4.68;;
76964;SDS011;65903;51.452;7.198;2022-12-26T06:25:59;7.88;;;5.40;;
76964;SDS011;65903;51.452;7.198;2022-12-26T06:27:02;7.30;;;5.10;;
76964;SDS011;65903;51.452;7.198;2022-12-26T06:28:02;5.95;;;4.47;;
76964;SDS011;65903;51.452;7.198;2022-12-26T06:29:03;5.70;;;4.57;;
76964;SDS011;65903;51.452;7.198;2022-12-26T06:30:03;7.55;;;4.57;;
76964;SDS011;65903;51.452;7.198;2022-12-26T06:31:10;6.63;;;4.80;;
76964;SDS011;65903;51.452;7.198;2022-12-26T06:32:13;6.55;;;4.47;;
76964;SDS011;65903;51.452;7.198;2022-12-26T06:33:14;7.05;;;4.78;;
76964;SDS011;65903;51.452;7.198;2022-12-26T06:34:14;5.38;;;3.80;;
76964;SDS011;65903;51.452;7.198;2022-12-26T06:35:15;6.70;;;4.88;;
76964;SDS011;65903;51.452;7.198;2022-12-26T06:36:16;6.60;;;4.85;;
76964;SDS011;65903;51.452;7.198;2022-12-26T06:37:19;5.55;;;3.95;;
76964;SDS011;65903;51.452;7.198;2022-12-26T06:38:19;6.78;;;5.05;;
76964;SDS011;65903;51.452;7.198;2022-12-26T06:39:22;6.30;;;4.35;;
76964;SDS011;65903;51.452;7.198;2022-12-26T06:40:26;6.80;;;4.55;;
76964;SDS011;65903;51.452;7.198;2022-12-26T06:41:28;8.15;;;5.22;;
76964;SDS011;65903;51.452;7.198;2022-12-26T06:42:29;6.45;;;4.72;;
76964;SDS011;65903;51.452;7.198;2022-12-26T06:43:29;7.25;;;4.93;;
76964;SDS011;65903;51.452;7.198;2022-12-26T06:44:29;7.53;;;4.90;;
76964;SDS011;65903;51.452;7.198;2022-12-26T06:45:30;9.23;;;5.25;;
76964;SDS011;65903;51.452;7.198;2022-12-26T06:46:30;7.40;;;5.30;;
76964;SDS011;65903;51.452;7.198;2022-12-26T06:47:33;8.55;;;5.75;;
76964;SDS011;65903;51.452;7.198;2022-12-26T06:48:33;7.95;;;5.30;;
76964;SDS011;65903;51.452;7.198;2022-12-26T06:49:38;7.80;;;5.53;;
76964;SDS011;65903;51.452;7.198;2022-12-26T06:50:38;8.90;;;5.13;;
76964;SDS011;65903;51.452;7.198;2022-12-26T06:51:41;9.10;;;5.30;;
76964;SDS011;65903;51.452;7.198;2022-12-26T06:52:44;6.78;;;4.85;;
76964;SDS011;65903;51.452;7.198;2022-12-26T06:53:47;7.75;;;5.05;;
76964;SDS011;65903;51.452;7.198;2022-12-26T06:54:50;7.78;;;5.38;;
76964;SDS011;65903;51.452;7.198;2022-12-26T06:55:50;7.65;;;5.30;;
76964;SDS011;65903;51.452;7.198;2022-12-26T06:56:50;8.90;;;5.93;;
76964;SDS011;65903;51.452;7.198;2022-12-26T06:57:51;8.32;;;5.22;;
76964;SDS011;65903;51.452;7.198;2022-12-26T06:58:54;7.32;;;5.32;;
76964;SDS011;65903;51.452;7.198;2022-12-26T06:59:56;8.50;;;5.00;;
76964;SDS011;65903;51.452;7.198;2022-12-26T07:01:08;7.88;;;5.40;;
76964;SDS011;65903;51.452;7.198;2022-12-26T07:02:13;9.63;;;5.18;;
76964;SDS011;65903;51.452;7.198;2022-12-26T07:03:15;7.30;;;5.45;;
76964;SDS011;65903;51.452;7.198;2022-12-26T07:04:16;7.28;;;5.40;;
76964;SDS011;65903;51.452;7.198;2022-12-26T07:05:18;7.95;;;5.05;;
76964;SDS011;65903;51.452;7.198;2022-12-26T07:06:32;6.90;;;5.28;;
76964;SDS011;65903;51.452;7.198;2022-12-26T07:07:35;9.02;;;5.82;;
76964;SDS011;65903;51.452;7.198;2022-12-26T07:08:40;7.22;;;4.85;;
76964;SDS011;65903;51.452;7.198;2022-12-26T07:09:43;7.30;;;4.80;;
76964;SDS011;65903;51.452;7.198;2022-12-26T07:10:43;7.78;;;5.05;;
76964;SDS011;65903;51.452;7.198;2022-12-26T07:11:45;6.72;;;4.60;;
76964;SDS011;65903;51.452;7.198;2022-12-26T07:12:47;6.55;;;4.60;;
76964;SDS011;65903;51.452;7.198;2022-12-26T07:13:50;5.00;;;3.83;;
76964;SDS011;65903;51.452;7.198;2022-12-26T07:14:51;6.18;;;4.35;;
76964;SDS011;65903;51.452;7.198;2022-12-26T07:15:51;6.93;;;4.22;;
76964;SDS011;65903;51.452;7.198;2022-12-26T07:16:51;6.30;;;4.13;;
76964;SDS011;65903;51.452;7.198;2022-12-26T07:17:52;7.70;;;4.68;;
76964;SDS011;65903;51.452;7.198;2022-12-26T07:18:58;5.93;;;4.28;;
76964;SDS011;65903;51.452;7.198;2022-12-26T07:20:00;5.80;;;4.00;;
76964;SDS011;65903;51.452;7.198;2022-12-26T07:21:04;6.57;;;3.80;;
76964;SDS011;65903;51.452;7.198;2022-12-26T07:22:05;6.68;;;4.65;;
76964;SDS011;65903;51.452;7.198;2022-12-26T07:23:08;5.78;;;4.13;;
76964;SDS011;65903;51.452;7.198;2022-12-26T07:24:12;6.05;;;4.03;;
76964;SDS011;65903;51.452;7.198;2022-12-26T07:25:14;6.80;;;4.07;;
76964;SDS011;65903;51.452;7.198;2022-12-26T07:26:15;6.75;;;4.00;;
76964;SDS011;65903;51.452;7.198;2022-12-26T07:27:20;5.43;;;4.20;;
76964;SDS011;65903;51.452;7.198;2022-12-26T07:28:20;6.20;;;4.18;;
76964;SDS011;65903;51.452;7.198;2022-12-26T07:29:23;6.38;;;4.28;;
76964;SDS011;65903;51.452;7.198;2022-12-26T07:30:23;6.65;;;4.25;;
76964;SDS011;65903;51.452;7.198;2022-12-26T07:31:24;5.32;;;4.22;;
76964;SDS011;65903;51.452;7.198;2022-12-26T07:32:27;7.35;;;4.35;;
76964;SDS011;65903;51.452;7.198;2022-12-26T07:33:29;7.18;;;4.72;;
76964;SDS011;65903;51.452;7.198;2022-12-26T07:34:32;6.65;;;4.28;;
76964;SDS011;65903;51.452;7.198;2022-12-26T07:35:32;7.15;;;4.72;;